Time;durP1;ratioP1;P1;durP2;ratioP2;P2;SDS_P1;SDS_P2;PMS_P1;PMS_P2;Temp;Humidity;BMP_temperature;BMP_pressure;BME280_temperature;BME280_humidity;BME280_pressure;Samples;Min_cycle;Max_cycle;Signal;HPM_P1;HPM_P2
2021/10/13 00:00:27;;;;;;;1.70;1.10;;;;;;;;;;5050292;28;20047;-82
2021/10/13 00:02:55;;;;;;;7.00;1.20;;;;;;;;;;5051929;28;20049;-82
2021/10/13 00:05:22;;;;;;;4.45;1.10;;;;;;;;;;5054771;28;20526;-82
2021/10/13 00:07:49;;;;;;;3.60;1.23;;;;;;;;;;5058424;28;20124;-82
2021/10/13 00:10:22;;;;;;;5.38;1.20;;;;;;;;;;5038947;28;20079;-82
2021/10/13 00:12:50;;;;;;;5.85;1.35;;;;;;;;;;5061173;28;20631;-82
2021/10/13 00:15:17;;;;;;;4.38;1.02;;;;;;;;;;5043846;28;20041;-82
2021/10/13 00:17:44;;;;;;;3.90;0.90;;;;;;;;;;5041621;28;20048;-82
2021/10/13 00:20:11;;;;;;;22.50;1.95;;;;;;;;;;5042466;28;20056;-82
2021/10/13 00:22:39;;;;;;;2.53;1.13;;;;;;;;;;5051471;28;20045;-82
2021/10/13 00:25:07;;;;;;;4.25;1.13;;;;;;;;;;5049757;28;20087;-82
2021/10/13 00:27:34;;;;;;;9.05;2.10;;;;;;;;;;5048958;28;20049;-82
2021/10/13 00:30:01;;;;;;;9.80;1.20;;;;;;;;;;5049191;28;20265;-82
2021/10/13 00:32:34;;;;;;;4.68;1.63;;;;;;;;;;5040306;28;20164;-82
2021/10/13 00:35:01;;;;;;;4.45;1.45;;;;;;;;;;5044953;28;20080;-82
2021/10/13 00:37:31;;;;;;;3.50;1.48;;;;;;;;;;5055470;28;20129;-82
2021/10/13 00:40:00;;;;;;;3.63;1.40;;;;;;;;;;5057228;28;20127;-82
2021/10/13 00:42:27;;;;;;;6.95;1.70;;;;;;;;;;5053569;28;20140;-83
2021/10/13 00:44:55;;;;;;;3.92;1.40;;;;;;;;;;5051460;28;20105;-82
2021/10/13 00:47:22;;;;;;;5.93;1.50;;;;;;;;;;5050232;28;20124;-82
2021/10/13 00:49:49;;;;;;;8.43;1.63;;;;;;;;;;5048688;28;20049;-83
2021/10/13 00:52:20;;;;;;;9.00;1.70;;;;;;;;;;5051418;28;20128;-83
2021/10/13 00:54:47;;;;;;;7.22;1.67;;;;;;;;;;5043427;28;20144;-83
2021/10/13 00:57:14;;;;;;;2.88;1.65;;;;;;;;;;5051549;28;20045;-83
2021/10/13 00:59:42;;;;;;;8.35;1.60;;;;;;;;;;5052774;28;20473;-82
2021/10/13 01:02:15;;;;;;;7.60;1.85;;;;;;;;;;5053129;28;20132;-83
2021/10/13 01:04:43;;;;;;;4.10;1.23;;;;;;;;;;5047011;28;20480;-82
2021/10/13 01:07:13;;;;;;;5.32;1.98;;;;;;;;;;5052705;28;20130;-83
2021/10/13 01:10:07;;;;;;;7.82;3.08;;;;;;;;;;5053493;28;20076;-82
2021/10/13 01:12:55;;;;;;;6.13;1.92;;;;;;;;;;5034809;28;20499;-82
2021/10/13 01:15:23;;;;;;;5.60;2.20;;;;;;;;;;5049544;28;20037;-82
2021/10/13 01:18:02;;;;;;;12.38;2.17;;;;;;;;;;5051907;28;20127;-82
2021/10/13 01:20:35;;;;;;;7.60;2.20;;;;;;;;;;5045543;28;20076;-83
2021/10/13 01:23:18;;;;;;;6.30;2.63;;;;;;;;;;5050152;28;20144;-83
2021/10/13 01:25:48;;;;;;;7.88;2.47;;;;;;;;;;5053407;28;20128;-83
2021/10/13 01:28:24;;;;;;;14.00;2.72;;;;;;;;;;5052435;28;20126;-83
2021/10/13 01:30:58;;;;;;;5.35;2.92;;;;;;;;;;5047465;28;20128;-82
2021/10/13 01:33:27;;;;;;;7.80;2.65;;;;;;;;;;5044811;28;20041;-82
2021/10/13 01:35:56;;;;;;;7.57;3.50;;;;;;;;;;5058437;28;20064;-82
2021/10/13 01:38:24;;;;;;;8.05;2.67;;;;;;;;;;5050421;28;20444;-82
2021/10/13 01:44:21;;;;;;;8.15;3.47;;;;;;;;;;5033741;28;20184;-82
2021/10/13 01:46:48;;;;;;;8.73;3.60;;;;;;;;;;5047613;28;20123;-82
2021/10/13 01:49:20;;;;;;;10.80;4.05;;;;;;;;;;5046624;28;20088;-83
2021/10/13 01:51:48;;;;;;;10.07;4.13;;;;;;;;;;5064329;28;20463;-83
2021/10/13 01:54:15;;;;;;;16.67;5.03;;;;;;;;;;5038744;28;20136;-83
2021/10/13 01:56:43;;;;;;;14.02;5.00;;;;;;;;;;5042428;28;20070;-83
2021/10/13 01:59:14;;;;;;;13.32;5.15;;;;;;;;;;5049356;28;20145;-83
2021/10/13 02:01:43;;;;;;;10.18;4.60;;;;;;;;;;5043365;28;20052;-82
2021/10/13 02:04:10;;;;;;;12.20;5.25;;;;;;;;;;5048296;28;20107;-83
2021/10/13 02:06:40;;;;;;;10.82;4.85;;;;;;;;;;5050745;28;20048;-83
2021/10/13 02:09:08;;;;;;;10.07;5.07;;;;;;;;;;5046997;28;20128;-83
2021/10/13 02:11:35;;;;;;;10.98;5.03;;;;;;;;;;5054432;28;20044;-82
2021/10/13 02:14:07;;;;;;;14.57;5.10;;;;;;;;;;5057014;28;20049;-83
2021/10/13 02:16:35;;;;;;;13.35;4.95;;;;;;;;;;5038078;28;20115;-82
2021/10/13 02:19:04;;;;;;;13.10;4.80;;;;;;;;;;5044413;28;20132;-83
2021/10/13 02:21:32;;;;;;;13.77;5.70;;;;;;;;;;5049762;28;20092;-83
2021/10/13 02:23:59;;;;;;;12.30;5.40;;;;;;;;;;5049799;28;20084;-83
2021/10/13 02:26:47;;;;;;;13.10;6.10;;;;;;;;;;5059395;28;20151;-83
2021/10/13 02:29:15;;;;;;;14.95;6.30;;;;;;;;;;5040055;28;20816;-83
2021/10/13 02:31:43;;;;;;;16.77;6.32;;;;;;;;;;5049531;28;20044;-83
2021/10/13 02:34:12;;;;;;;17.33;6.70;;;;;;;;;;5049816;28;20055;-82
2021/10/13 02:36:39;;;;;;;15.15;6.85;;;;;;;;;;5052465;28;20156;-83
2021/10/13 02:39:08;;;;;;;15.57;6.93;;;;;;;;;;5052697;28;20049;-83
2021/10/13 02:41:36;;;;;;;20.65;7.20;;;;;;;;;;5058304;28;20080;-83
2021/10/13 02:44:04;;;;;;;20.50;8.10;;;;;;;;;;5046588;28;20081;-83
2021/10/13 02:46:33;;;;;;;20.48;8.18;;;;;;;;;;5047252;28;20036;-83
2021/10/13 02:49:05;;;;;;;22.70;8.32;;;;;;;;;;5047837;28;20132;-83
2021/10/13 02:51:42;;;;;;;21.13;8.70;;;;;;;;;;5048147;28;20084;-83
2021/10/13 02:54:28;;;;;;;22.92;7.53;;;;;;;;;;5037693;28;20080;-83
2021/10/13 02:56:57;;;;;;;17.25;8.07;;;;;;;;;;5051010;28;20068;-83
2021/10/13 02:59:39;;;;;;;20.45;8.25;;;;;;;;;;5047498;28;20107;-83
2021/10/13 03:02:11;;;;;;;22.05;8.02;;;;;;;;;;5060726;28;20099;-83
2021/10/13 03:04:43;;;;;;;19.23;7.25;;;;;;;;;;5051170;28;20045;-83
2021/10/13 03:07:12;;;;;;;29.15;9.63;;;;;;;;;;5059858;28;20060;-81
2021/10/13 03:09:49;;;;;;;18.63;7.38;;;;;;;;;;5048992;28;20123;-82
2021/10/13 03:12:16;;;;;;;18.77;7.88;;;;;;;;;;5048229;28;20128;-82
2021/10/13 03:14:44;;;;;;;17.33;7.32;;;;;;;;;;5047098;28;20069;-82
2021/10/13 03:17:11;;;;;;;23.10;6.90;;;;;;;;;;5040520;28;20045;-82
2021/10/13 03:19:39;;;;;;;19.67;7.03;;;;;;;;;;5048243;28;20117;-82
2021/10/13 03:22:07;;;;;;;26.52;7.75;;;;;;;;;;5044584;28;20147;-82
2021/10/13 03:24:39;;;;;;;18.17;7.80;;;;;;;;;;5041708;28;20128;-82
2021/10/13 03:27:06;;;;;;;16.75;6.90;;;;;;;;;;5046346;28;20464;-82
2021/10/13 03:29:38;;;;;;;23.08;7.35;;;;;;;;;;5034046;28;20133;-82
2021/10/13 03:32:05;;;;;;;18.30;7.63;;;;;;;;;;5044065;28;20438;-82
2021/10/13 03:34:32;;;;;;;22.10;7.88;;;;;;;;;;5043060;28;20148;-82
2021/10/13 03:36:59;;;;;;;15.70;6.93;;;;;;;;;;5044802;28;20053;-82
2021/10/13 03:39:26;;;;;;;17.77;6.50;;;;;;;;;;5042939;28;20088;-82
2021/10/13 03:41:54;;;;;;;18.15;7.15;;;;;;;;;;5056337;28;20135;-83
2021/10/13 03:44:21;;;;;;;32.40;9.10;;;;;;;;;;5039035;28;20060;-83
2021/10/13 03:46:49;;;;;;;17.48;7.65;;;;;;;;;;5045204;28;20140;-82
2021/10/13 03:49:16;;;;;;;20.45;7.70;;;;;;;;;;5041902;28;20068;-82
2021/10/13 03:51:43;;;;;;;19.33;6.43;;;;;;;;;;5043529;28;20151;-82
2021/10/13 03:54:11;;;;;;;22.25;7.60;;;;;;;;;;5041699;28;20113;-82
2021/10/13 03:56:38;;;;;;;19.55;7.43;;;;;;;;;;5041675;28;20059;-81
2021/10/13 03:59:06;;;;;;;15.82;7.30;;;;;;;;;;5045380;28;20084;-82
2021/10/13 04:01:33;;;;;;;18.05;7.50;;;;;;;;;;5047542;28;20045;-82
2021/10/13 04:04:00;;;;;;;17.38;7.57;;;;;;;;;;5040689;28;20111;-82
2021/10/13 04:06:27;;;;;;;21.50;8.23;;;;;;;;;;5059379;28;20056;-82
2021/10/13 04:08:54;;;;;;;16.20;7.30;;;;;;;;;;5059398;28;20152;-81
2021/10/13 04:11:22;;;;;;;21.98;7.45;;;;;;;;;;5054872;28;20064;-81
2021/10/13 04:13:50;;;;;;;21.98;7.63;;;;;;;;;;5047313;28;20063;-81
2021/10/13 04:16:17;;;;;;;28.48;8.93;;;;;;;;;;5036968;28;20132;-82
2021/10/13 04:18:44;;;;;;;19.35;8.93;;;;;;;;;;5058844;28;20087;-82
2021/10/13 04:21:11;;;;;;;22.63;8.57;;;;;;;;;;5041736;28;20151;-82
2021/10/13 04:23:39;;;;;;;21.30;9.10;;;;;;;;;;5054765;28;20132;-82
2021/10/13 04:26:07;;;;;;;22.27;8.00;;;;;;;;;;5050129;28;20128;-82
2021/10/13 04:28:34;;;;;;;21.55;8.90;;;;;;;;;;5051532;28;20077;-82
2021/10/13 04:31:01;;;;;;;23.73;8.52;;;;;;;;;;5043911;28;20095;-82
2021/10/13 04:33:29;;;;;;;19.80;8.38;;;;;;;;;;5048917;28;20053;-82
2021/10/13 04:35:56;;;;;;;26.08;10.30;;;;;;;;;;5050508;28;20505;-83
2021/10/13 04:38:26;;;;;;;28.48;9.18;;;;;;;;;;5050884;28;20580;-84
2021/10/13 04:40:53;;;;;;;24.88;10.07;;;;;;;;;;5052628;28;20076;-84
2021/10/13 04:43:20;;;;;;;25.90;9.98;;;;;;;;;;5052988;28;20057;-84
2021/10/13 04:45:47;;;;;;;28.45;9.70;;;;;;;;;;5049726;28;20077;-84
2021/10/13 04:48:16;;;;;;;20.92;8.95;;;;;;;;;;5058647;28;20053;-84
2021/10/13 04:50:44;;;;;;;24.80;9.68;;;;;;;;;;5051188;28;20073;-82
2021/10/13 04:53:11;;;;;;;24.70;10.20;;;;;;;;;;5051052;28;20076;-83
2021/10/13 04:55:38;;;;;;;20.83;9.07;;;;;;;;;;5043382;28;20506;-84
2021/10/13 04:58:05;;;;;;;21.88;9.15;;;;;;;;;;5048699;28;20140;-82
2021/10/13 05:00:32;;;;;;;27.35;9.82;;;;;;;;;;5051385;28;20080;-82
2021/10/13 05:03:00;;;;;;;35.25;10.00;;;;;;;;;;5047377;28;20140;-83
2021/10/13 05:05:28;;;;;;;21.35;8.73;;;;;;;;;;5052757;28;20597;-81
2021/10/13 05:07:55;;;;;;;27.25;9.98;;;;;;;;;;5057113;28;20099;-80
2021/10/13 05:10:22;;;;;;;36.17;10.02;;;;;;;;;;5056733;28;20102;-81
2021/10/13 05:12:50;;;;;;;29.40;9.45;;;;;;;;;;5052486;28;20096;-85
2021/10/13 05:15:23;;;;;;;24.85;10.35;;;;;;;;;;5052906;28;20152;-81
2021/10/13 05:17:50;;;;;;;29.90;10.27;;;;;;;;;;5046094;28;20085;-83
2021/10/13 05:20:17;;;;;;;23.13;9.60;;;;;;;;;;5050908;28;20080;-82
2021/10/13 05:22:44;;;;;;;28.17;10.30;;;;;;;;;;5049785;28;20136;-82
2021/10/13 05:25:11;;;;;;;24.25;9.50;;;;;;;;;;5052837;28;20478;-82
2021/10/13 05:27:39;;;;;;;27.67;9.38;;;;;;;;;;5050458;28;20094;-88
2021/10/13 05:30:08;;;;;;;23.23;10.05;;;;;;;;;;5052319;28;20057;-86
2021/10/13 05:32:35;;;;;;;36.00;10.20;;;;;;;;;;5049701;28;20099;-85
2021/10/13 05:35:03;;;;;;;25.77;9.43;;;;;;;;;;5054444;28;20049;-80
2021/10/13 05:37:30;;;;;;;31.15;9.80;;;;;;;;;;5060663;28;20040;-82
2021/10/13 05:39:57;;;;;;;32.10;11.48;;;;;;;;;;5051157;28;20648;-84
2021/10/13 05:42:25;;;;;;;31.02;10.20;;;;;;;;;;5052296;28;20128;-82
2021/10/13 05:44:55;;;;;;;37.47;10.60;;;;;;;;;;5043904;28;20102;-82
2021/10/13 05:47:22;;;;;;;27.23;9.95;;;;;;;;;;5051102;28;20103;-82
2021/10/13 05:49:49;;;;;;;20.20;9.82;;;;;;;;;;5047606;28;20099;-80
2021/10/13 05:52:17;;;;;;;32.72;11.05;;;;;;;;;;5045215;28;20048;-82
2021/10/13 05:54:44;;;;;;;28.58;11.68;;;;;;;;;;5040912;28;20662;-81
2021/10/13 05:57:12;;;;;;;35.72;10.38;;;;;;;;;;5042454;28;20048;-81
2021/10/13 05:59:41;;;;;;;31.88;11.05;;;;;;;;;;5044006;28;20493;-81
2021/10/13 06:02:08;;;;;;;35.75;11.98;;;;;;;;;;5045121;28;20064;-81
2021/10/13 06:04:36;;;;;;;32.53;11.40;;;;;;;;;;5043017;28;20049;-81
2021/10/13 06:07:05;;;;;;;31.90;11.07;;;;;;;;;;5051436;28;20081;-85
2021/10/13 06:09:34;;;;;;;33.30;11.15;;;;;;;;;;5065275;28;20052;-83
2021/10/13 06:12:02;;;;;;;30.95;11.15;;;;;;;;;;5052559;28;21890;-85
2021/10/13 06:14:32;;;;;;;37.95;11.82;;;;;;;;;;5065712;28;20037;-85
2021/10/13 06:17:05;;;;;;;31.75;11.93;;;;;;;;;;5051437;28;20083;-85
2021/10/13 06:19:33;;;;;;;31.30;11.73;;;;;;;;;;5038331;28;20561;-85
2021/10/13 06:22:01;;;;;;;39.28;12.05;;;;;;;;;;5050209;28;20056;-85
2021/10/13 06:24:44;;;;;;;32.53;13.10;;;;;;;;;;5048776;28;20497;-84
2021/10/13 06:27:12;;;;;;;32.47;11.90;;;;;;;;;;5045104;28;20053;-85
2021/10/13 06:29:40;;;;;;;31.15;12.07;;;;;;;;;;5049345;28;20052;-84
2021/10/13 06:32:08;;;;;;;33.17;12.63;;;;;;;;;;5052076;28;20106;-84
2021/10/13 06:34:35;;;;;;;30.98;13.02;;;;;;;;;;5050751;28;20142;-83
2021/10/13 06:37:03;;;;;;;33.78;13.00;;;;;;;;;;5051626;28;20488;-85
2021/10/13 06:39:31;;;;;;;34.45;13.48;;;;;;;;;;5038590;28;20055;-85
2021/10/13 06:41:58;;;;;;;32.28;12.82;;;;;;;;;;5050591;28;20041;-84
2021/10/13 06:44:25;;;;;;;44.63;15.43;;;;;;;;;;5049131;28;20079;-84
2021/10/13 06:46:54;;;;;;;41.33;15.02;;;;;;;;;;5046755;28;20671;-85
2021/10/13 06:49:22;;;;;;;46.30;14.20;;;;;;;;;;5045363;28;20545;-85
2021/10/13 06:51:49;;;;;;;33.47;12.90;;;;;;;;;;5049654;28;20541;-84
2021/10/13 06:54:17;;;;;;;34.58;14.45;;;;;;;;;;5041900;28;20128;-85
2021/10/13 06:56:44;;;;;;;37.60;14.10;;;;;;;;;;5036711;28;20127;-85
2021/10/13 06:59:12;;;;;;;38.28;12.82;;;;;;;;;;5049336;28;20044;-84
2021/10/13 07:01:42;;;;;;;29.00;11.27;;;;;;;;;;5039759;28;20091;-85
2021/10/13 07:04:14;;;;;;;34.38;13.00;;;;;;;;;;5047236;28;20053;-85
2021/10/13 07:06:45;;;;;;;31.60;12.20;;;;;;;;;;5058107;28;20479;-85
2021/10/13 07:09:12;;;;;;;32.17;14.18;;;;;;;;;;5049950;28;20087;-85
2021/10/13 07:11:39;;;;;;;26.35;11.48;;;;;;;;;;5066051;28;20136;-85
2021/10/13 07:14:11;;;;;;;31.17;11.85;;;;;;;;;;5046305;28;20053;-85
2021/10/13 07:16:38;;;;;;;26.80;11.85;;;;;;;;;;5065067;28;20045;-85
2021/10/13 07:19:12;;;;;;;35.08;12.55;;;;;;;;;;5048990;28;20127;-85
2021/10/13 07:21:44;;;;;;;;;;;;;;;;;;5061631;28;20095;-85
2021/10/13 07:24:11;;;;;;;21.85;10.07;;;;;;;;;;5063800;28;19966;-85
2021/10/13 07:26:41;;;;;;;25.75;10.52;;;;;;;;;;5049916;28;20132;-85
2021/10/13 07:29:09;;;;;;;37.65;11.27;;;;;;;;;;5037148;28;20049;-85
2021/10/13 07:31:44;;;;;;;28.27;10.52;;;;;;;;;;5046412;28;20072;-85
2021/10/13 07:34:11;;;;;;;26.67;9.60;;;;;;;;;;5049474;28;20096;-85
2021/10/13 07:36:39;;;;;;;28.45;10.13;;;;;;;;;;5054243;28;20383;-84
2021/10/13 07:39:06;;;;;;;29.00;9.55;;;;;;;;;;5057999;28;20084;-83
2021/10/13 07:41:34;;;;;;;21.85;9.77;;;;;;;;;;5047759;28;20084;-82
2021/10/13 07:44:01;;;;;;;27.08;9.90;;;;;;;;;;5054568;28;20076;-83
2021/10/13 07:46:28;;;;;;;23.52;9.50;;;;;;;;;;5046772;28;20119;-83
2021/10/13 07:48:59;;;;;;;21.20;9.20;;;;;;;;;;5049136;28;20127;-83
2021/10/13 07:51:26;;;;;;;25.23;10.30;;;;;;;;;;5050202;28;20543;-83
2021/10/13 07:53:53;;;;;;;23.60;9.95;;;;;;;;;;5049794;28;20147;-83
2021/10/13 07:56:24;;;;;;;24.70;9.80;;;;;;;;;;5049359;28;20475;-82
2021/10/13 07:58:51;;;;;;;19.63;9.50;;;;;;;;;;5050165;28;20080;-84
2021/10/13 08:01:18;;;;;;;19.58;9.00;;;;;;;;;;5044622;28;20048;-81
2021/10/13 08:03:45;;;;;;;16.92;7.28;;;;;;;;;;5051390;28;20045;-83
2021/10/13 08:06:12;;;;;;;16.75;7.57;;;;;;;;;;5046592;28;20437;-83
2021/10/13 08:08:50;;;;;;;15.00;6.72;;;;;;;;;;5050188;28;20152;-83
2021/10/13 08:11:17;;;;;;;12.75;6.20;;;;;;;;;;5051880;28;20091;-83
2021/10/13 08:13:44;;;;;;;21.55;7.13;;;;;;;;;;5045753;28;20049;-83
2021/10/13 08:16:11;;;;;;;11.82;6.38;;;;;;;;;;5044662;28;20041;-83
2021/10/13 08:18:39;;;;;;;15.32;6.57;;;;;;;;;;5048513;28;20494;-83
2021/10/13 08:21:06;;;;;;;20.13;6.25;;;;;;;;;;5045759;28;20049;-83
2021/10/13 08:23:37;;;;;;;12.75;6.15;;;;;;;;;;5048868;28;20091;-83
2021/10/13 08:26:05;;;;;;;12.38;7.38;;;;;;;;;;5045076;28;20430;-83
2021/10/13 08:28:32;;;;;;;20.10;7.65;;;;;;;;;;5037969;28;20545;-83
2021/10/13 08:30:59;;;;;;;17.23;7.13;;;;;;;;;;5048942;28;20126;-83
2021/10/13 08:33:27;;;;;;;12.30;6.53;;;;;;;;;;5049106;28;20049;-84
2021/10/13 08:35:54;;;;;;;16.40;5.97;;;;;;;;;;5049627;28;20681;-84
2021/10/13 08:38:22;;;;;;;17.23;6.95;;;;;;;;;;5057479;28;20084;-84
2021/10/13 08:40:49;;;;;;;11.90;5.18;;;;;;;;;;5057059;28;20572;-85
2021/10/13 08:43:16;;;;;;;14.20;5.82;;;;;;;;;;5052643;28;20073;-84
2021/10/13 08:45:43;;;;;;;13.73;6.65;;;;;;;;;;5047289;28;20860;-84
2021/10/13 08:48:10;;;;;;;15.15;5.28;;;;;;;;;;5029861;28;20057;-84
2021/10/13 08:50:38;;;;;;;12.52;5.72;;;;;;;;;;5049365;28;20095;-84
2021/10/13 08:53:14;;;;;;;14.43;5.35;;;;;;;;;;5040005;28;21730;-84
2021/10/13 08:55:42;;;;;;;9.85;5.00;;;;;;;;;;5051596;28;20107;-84
2021/10/13 08:58:21;;;;;;;16.48;4.95;;;;;;;;;;5052573;28;20724;-84
2021/10/13 09:00:50;;;;;;;14.93;4.93;;;;;;;;;;5038151;28;20086;-82
2021/10/13 09:03:30;;;;;;;18.20;4.68;;;;;;;;;;5040168;28;20053;-84
2021/10/13 09:05:58;;;;;;;11.30;5.38;;;;;;;;;;5057383;28;20044;-84
2021/10/13 09:08:26;;;;;;;10.70;4.95;;;;;;;;;;5062539;28;20083;-83
2021/10/13 09:10:54;;;;;;;9.73;4.72;;;;;;;;;;5056140;28;20068;-84
2021/10/13 09:13:22;;;;;;;10.45;4.80;;;;;;;;;;5061751;28;20045;-84
2021/10/13 09:15:53;;;;;;;10.10;4.88;;;;;;;;;;5053682;28;20124;-84
2021/10/13 09:18:23;;;;;;;13.32;5.30;;;;;;;;;;5050120;28;20143;-84
2021/10/13 09:20:51;;;;;;;10.80;4.03;;;;;;;;;;5044533;28;20516;-84
2021/10/13 09:23:20;;;;;;;9.32;3.78;;;;;;;;;;5061196;28;20084;-84
2021/10/13 09:26:00;;;;;;;6.00;3.05;;;;;;;;;;5051021;28;20080;-84
2021/10/13 09:28:28;;;;;;;7.95;3.08;;;;;;;;;;5067220;28;20186;-84
2021/10/13 09:30:55;;;;;;;4.85;2.88;;;;;;;;;;5054636;28;20140;-84
2021/10/13 09:33:22;;;;;;;10.38;2.92;;;;;;;;;;5052896;28;20136;-85
2021/10/13 09:35:50;;;;;;;2.90;1.60;;;;;;;;;;5057012;28;20132;-86
2021/10/13 09:38:22;;;;;;;6.10;1.65;;;;;;;;;;5050733;28;20081;-86
2021/10/13 09:40:50;;;;;;;8.45;2.00;;;;;;;;;;5054071;28;20072;-87
2021/10/13 09:43:36;;;;;;;2.78;0.65;;;;;;;;;;5044500;28;20084;-87
2021/10/13 09:46:11;;;;;;;3.03;1.17;;;;;;;;;;5052176;28;20076;-86
2021/10/13 09:48:42;;;;;;;5.20;0.90;;;;;;;;;;5039877;28;20069;-83
2021/10/13 09:51:27;;;;;;;2.22;0.60;;;;;;;;;;5045879;28;20083;-85
2021/10/13 09:54:06;;;;;;;3.22;0.63;;;;;;;;;;5045940;28;20092;-84
2021/10/13 09:56:39;;;;;;;3.70;0.60;;;;;;;;;;5048475;28;20080;-84
2021/10/13 09:59:13;;;;;;;3.72;1.20;;;;;;;;;;5050723;28;20128;-85
2021/10/13 10:01:45;;;;;;;2.58;1.17;;;;;;;;;;5049024;28;20124;-85
2021/10/13 10:04:24;;;;;;;6.95;0.98;;;;;;;;;;5050405;28;20059;-86
2021/10/13 10:07:02;;;;;;;2.97;1.45;;;;;;;;;;5048590;28;20065;-85
2021/10/13 10:09:34;;;;;;;4.78;1.50;;;;;;;;;;5052295;28;20091;-85
2021/10/13 10:12:05;;;;;;;2.55;1.10;;;;;;;;;;5051205;28;20515;-85
2021/10/13 10:14:45;;;;;;;4.45;1.20;;;;;;;;;;5049194;28;20044;-86
2021/10/13 10:17:13;;;;;;;5.78;1.88;;;;;;;;;;5051653;28;20391;-85
2021/10/13 10:19:41;;;;;;;7.15;1.80;;;;;;;;;;5051076;28;20132;-86
2021/10/13 10:22:13;;;;;;;6.85;2.67;;;;;;;;;;5050140;28;20128;-85
2021/10/13 10:27:35;;;;;;;7.80;2.15;;;;;;;;;;5046648;28;21756;-85
2021/10/13 10:30:09;;;;;;;2.85;2.00;;;;;;;;;;5051000;28;20438;-87
2021/10/13 10:32:40;;;;;;;5.20;3.00;;;;;;;;;;5040950;28;20045;-85
2021/10/13 10:35:21;;;;;;;3.72;1.85;;;;;;;;;;5064555;28;20045;-90
2021/10/13 10:37:52;;;;;;;6.72;2.22;;;;;;;;;;5054648;28;20075;-84
2021/10/13 10:40:28;;;;;;;7.50;1.92;;;;;;;;;;5050446;28;20657;-86
2021/10/13 10:42:58;;;;;;;5.07;1.67;;;;;;;;;;5048266;28;20421;-85
2021/10/13 10:45:49;;;;;;;3.58;2.00;;;;;;;;;;5048762;28;20092;-84
2021/10/13 10:48:17;;;;;;;3.33;1.65;;;;;;;;;;5051327;28;20076;-83
2021/10/13 10:50:57;;;;;;;7.82;1.65;;;;;;;;;;5049839;28;20049;-83
2021/10/13 10:53:37;;;;;;;7.70;2.00;;;;;;;;;;5047255;28;20100;-83
2021/10/13 10:56:10;;;;;;;3.40;1.20;;;;;;;;;;5050242;28;20544;-84
2021/10/13 10:58:44;;;;;;;3.53;1.53;;;;;;;;;;5050714;28;20041;-83
2021/10/13 11:01:21;;;;;;;3.45;1.52;;;;;;;;;;5049290;28;20582;-83
2021/10/13 11:03:49;;;;;;;10.10;1.92;;;;;;;;;;5045872;28;20052;-84
2021/10/13 11:06:16;;;;;;;2.88;1.50;;;;;;;;;;5045637;28;20087;-87
2021/10/13 11:08:49;;;;;;;5.95;1.80;;;;;;;;;;5049685;28;20110;-86
2021/10/13 11:11:17;;;;;;;3.50;1.45;;;;;;;;;;5052721;28;20123;-83
2021/10/13 11:14:25;;;;;;;9.07;1.30;;;;;;;;;;5054041;28;20072;-84
2021/10/13 11:16:54;;;;;;;3.22;0.63;;;;;;;;;;5008345;28;20128;-83
2021/10/13 11:19:24;;;;;;;1.45;0.70;;;;;;;;;;5005701;28;20054;-85
2021/10/13 11:22:17;;;;;;;2.17;0.60;;;;;;;;;;5037632;28;20474;-85
2021/10/13 11:24:48;;;;;;;2.83;0.50;;;;;;;;;;5047246;28;20160;-87
2021/10/13 11:27:27;;;;;;;1.60;0.73;;;;;;;;;;5040948;28;20161;-83
2021/10/13 11:29:55;;;;;;;8.80;0.90;;;;;;;;;;5048492;28;20705;-83
2021/10/13 11:32:25;;;;;;;1.13;0.52;;;;;;;;;;5044684;28;20041;-82
2021/10/13 11:34:57;;;;;;;0.47;0.32;;;;;;;;;;5043934;28;20146;-83
2021/10/13 11:37:26;;;;;;;2.17;0.70;;;;;;;;;;5047536;28;20109;-83
2021/10/13 11:39:54;;;;;;;0.68;0.40;;;;;;;;;;5047293;28;20076;-83
2021/10/13 11:42:27;;;;;;;5.90;0.80;;;;;;;;;;5058184;28;20182;-85
2021/10/13 11:44:56;;;;;;;0.90;0.57;;;;;;;;;;5051132;28;20073;-85
2021/10/13 11:47:34;;;;;;;3.88;0.98;;;;;;;;;;5049067;28;20148;-85
2021/10/13 11:50:14;;;;;;;1.73;0.50;;;;;;;;;;5049753;28;20045;-85
2021/10/13 11:53:01;;;;;;;3.25;0.50;;;;;;;;;;5049911;28;20703;-85
2021/10/13 11:55:30;;;;;;;1.00;0.50;;;;;;;;;;5050145;28;20393;-86
2021/10/13 11:58:01;;;;;;;1.58;0.55;;;;;;;;;;5049593;28;20045;-83
2021/10/13 12:00:36;;;;;;;1.58;0.57;;;;;;;;;;5044844;28;20120;-83
2021/10/13 12:03:07;;;;;;;0.95;0.40;;;;;;;;;;5045841;28;20056;-83
2021/10/13 12:05:40;;;;;;;2.70;0.80;;;;;;;;;;5045074;28;20054;-83
2021/10/13 12:08:10;;;;;;;3.67;0.70;;;;;;;;;;5058874;28;20506;-83
2021/10/13 12:10:42;;;;;;;4.13;0.70;;;;;;;;;;5049277;28;20084;-83
2021/10/13 12:13:14;;;;;;;2.30;0.60;;;;;;;;;;5055076;28;20429;-83
2021/10/13 12:15:43;;;;;;;3.38;0.60;;;;;;;;;;5049706;28;20076;-83
2021/10/13 12:18:20;;;;;;;1.45;0.40;;;;;;;;;;5049684;28;20143;-84
2021/10/13 12:21:08;;;;;;;3.28;0.75;;;;;;;;;;5042313;28;20048;-84
2021/10/13 12:23:41;;;;;;;1.43;0.40;;;;;;;;;;5047333;28;20140;-85
2021/10/13 12:26:16;;;;;;;1.35;0.38;;;;;;;;;;5052774;28;20300;-84
2021/10/13 12:28:46;;;;;;;2.58;0.47;;;;;;;;;;5053726;28;20128;-84
2021/10/13 12:31:17;;;;;;;3.95;0.50;;;;;;;;;;5048887;28;20663;-85
2021/10/13 12:33:54;;;;;;;2.83;0.50;;;;;;;;;;5048497;28;20057;-84
2021/10/13 12:36:22;;;;;;;3.00;0.70;;;;;;;;;;5056139;28;20084;-84
2021/10/13 12:38:53;;;;;;;1.67;0.70;;;;;;;;;;5055667;28;20121;-84
2021/10/13 12:41:22;;;;;;;3.10;1.15;;;;;;;;;;5052001;28;20049;-83
2021/10/13 12:43:50;;;;;;;1.02;0.80;;;;;;;;;;5053975;28;20102;-83
2021/10/13 12:46:22;;;;;;;3.30;0.70;;;;;;;;;;5049304;28;20041;-83
2021/10/13 12:48:51;;;;;;;4.43;0.70;;;;;;;;;;5052440;28;20037;-83
2021/10/13 12:51:20;;;;;;;3.88;0.93;;;;;;;;;;5050665;28;20707;-83
2021/10/13 12:53:48;;;;;;;1.90;0.80;;;;;;;;;;5049603;28;20052;-83
2021/10/13 12:56:20;;;;;;;1.48;0.55;;;;;;;;;;5054074;28;20660;-83
2021/10/13 12:58:49;;;;;;;6.88;1.10;;;;;;;;;;5055538;28;20041;-84
2021/10/13 13:01:20;;;;;;;0.68;0.47;;;;;;;;;;5057574;28;20063;-83
2021/10/13 13:03:47;;;;;;;9.60;0.98;;;;;;;;;;5052467;28;20041;-84
2021/10/13 13:06:15;;;;;;;2.95;0.60;;;;;;;;;;5059551;28;20044;-84
2021/10/13 13:08:42;;;;;;;1.30;0.50;;;;;;;;;;5051589;28;20048;-84
2021/10/13 13:11:10;;;;;;;4.72;0.65;;;;;;;;;;5055474;28;20718;-84
2021/10/13 13:13:37;;;;;;;4.43;0.50;;;;;;;;;;5052222;28;20060;-86
2021/10/13 13:16:08;;;;;;;3.97;1.00;;;;;;;;;;5052064;28;20060;-85
2021/10/13 13:18:36;;;;;;;4.30;0.68;;;;;;;;;;5050523;28;20580;-83
2021/10/13 13:21:03;;;;;;;6.20;1.33;;;;;;;;;;5051256;28;20045;-83
2021/10/13 13:23:31;;;;;;;2.92;0.50;;;;;;;;;;5051127;28;20048;-83
2021/10/13 13:25:58;;;;;;;2.58;0.50;;;;;;;;;;5052008;28;20040;-82
2021/10/13 13:28:27;;;;;;;2.78;0.90;;;;;;;;;;5051591;28;20053;-83
2021/10/13 13:30:58;;;;;;;5.63;0.68;;;;;;;;;;5060635;28;20059;-83
2021/10/13 13:33:26;;;;;;;8.18;4.70;;;;;;;;;;5057000;28;20076;-84
2021/10/13 13:35:54;;;;;;;5.95;1.00;;;;;;;;;;5063229;28;20447;-84
2021/10/13 13:38:21;;;;;;;2.65;0.95;;;;;;;;;;5052287;28;20049;-82
2021/10/13 13:40:49;;;;;;;3.92;1.52;;;;;;;;;;5051414;28;20849;-82
2021/10/13 13:43:16;;;;;;;3.67;1.20;;;;;;;;;;5050633;28;20441;-81
2021/10/13 13:45:46;;;;;;;4.68;1.45;;;;;;;;;;5053437;28;20049;-81
2021/10/13 13:48:13;;;;;;;5.82;0.80;;;;;;;;;;5052395;28;20049;-81
2021/10/13 13:50:41;;;;;;;4.22;1.17;;;;;;;;;;5052536;28;20052;-81
2021/10/13 13:53:10;;;;;;;10.65;1.00;;;;;;;;;;5052746;28;20136;-82
2021/10/13 13:55:40;;;;;;;10.02;1.33;;;;;;;;;;5050462;28;20049;-82
2021/10/13 13:58:07;;;;;;;8.30;1.02;;;;;;;;;;5053365;28;20138;-82
2021/10/13 14:00:35;;;;;;;4.07;1.00;;;;;;;;;;5048056;28;20379;-82
2021/10/13 14:03:03;;;;;;;4.63;0.88;;;;;;;;;;5050643;28;20052;-82
2021/10/13 14:05:30;;;;;;;15.27;1.30;;;;;;;;;;5052697;28;20045;-82
2021/10/13 14:07:59;;;;;;;5.72;1.70;;;;;;;;;;5052128;28;20699;-83
2021/10/13 14:10:54;;;;;;;8.00;1.70;;;;;;;;;;5051471;28;20053;-82
2021/10/13 14:13:23;;;;;;;12.52;2.00;;;;;;;;;;5063609;28;20055;-82
2021/10/13 14:15:51;;;;;;;6.30;1.23;;;;;;;;;;5052175;28;20080;-83
2021/10/13 14:18:23;;;;;;;10.40;1.70;;;;;;;;;;5049385;28;20079;-83
2021/10/13 14:20:50;;;;;;;2.92;1.00;;;;;;;;;;5050075;28;20055;-82
2021/10/13 14:23:18;;;;;;;5.35;1.20;;;;;;;;;;5049128;28;20177;-81
2021/10/13 14:25:51;;;;;;;5.45;1.52;;;;;;;;;;5049416;28;20045;-82
2021/10/13 14:28:23;;;;;;;6.18;1.55;;;;;;;;;;5046849;28;20045;-82
2021/10/13 14:30:51;;;;;;;15.82;3.13;;;;;;;;;;5050154;28;20052;-81
2021/10/13 14:33:47;;;;;;;14.13;3.05;;;;;;;;;;5047466;28;20049;-81
2021/10/13 14:36:14;;;;;;;6.18;1.23;;;;;;;;;;5026698;28;20044;-81
2021/10/13 14:38:43;;;;;;;9.52;1.55;;;;;;;;;;5049198;28;20040;-83
2021/10/13 14:41:11;;;;;;;7.50;1.10;;;;;;;;;;5052073;28;20114;-82
2021/10/13 14:43:42;;;;;;;5.13;1.40;;;;;;;;;;5050743;28;20395;-81
2021/10/13 14:46:09;;;;;;;6.53;1.30;;;;;;;;;;5044485;28;20076;-82
2021/10/13 14:48:37;;;;;;;7.93;1.30;;;;;;;;;;5050140;28;20052;-81
2021/10/13 14:51:08;;;;;;;7.75;1.40;;;;;;;;;;5062185;28;20049;-80
2021/10/13 14:53:36;;;;;;;6.10;1.25;;;;;;;;;;5040882;28;20061;-79
2021/10/13 14:56:04;;;;;;;6.18;1.58;;;;;;;;;;5050033;28;20045;-79